Time,TemperatureF,DewpointF,PressureIn,WindDirection,WindDirectionDegrees,WindSpeedMPH,WindSpeedGustMPH,Humidity,HourlyPrecipIn,Conditions,Clouds,dailyrainin,SoftwareType,DateUTC
2013-10-21 00:12:00,38.0,34.0,29.88,WNW,301,0.0,4.0,86,0.00,,,0.00,,2013-10-21 06:12:00,
2013-10-21 00:22:00,37.0,33.0,29.87,WNW,301,0.0,5.0,86,0.00,,,0.00,,2013-10-21 06:22:00,
2013-10-21 00:42:00,37.0,34.0,29.88,WNW,296,0.0,6.0,87,0.00,,,0.00,,2013-10-21 06:42:00,
2013-10-21 00:52:00,37.0,34.0,29.87,WNW,296,0.0,0.0,88,0.00,,,0.00,,2013-10-21 06:52:00,
2013-10-21 01:12:00,38.0,35.0,29.87,WNW,296,0.0,0.0,88,0.00,,,0.00,,2013-10-21 07:12:00,
2013-10-21 01:22:00,38.0,35.0,29.87,WNW,296,0.0,0.0,88,0.00,,,0.00,,2013-10-21 07:22:00,
2013-10-21 01:42:00,38.0,35.0,29.87,WNW,296,0.0,0.0,88,0.00,,,0.00,,2013-10-21 07:42:00,
2013-10-21 01:52:00,37.0,34.0,29.87,WNW,296,0.0,0.0,88,0.00,,,0.00,,2013-10-21 07:52:00,
2013-10-21 02:12:00,37.0,34.0,29.86,WNW,296,0.0,0.0,88,0.00,,,0.00,,2013-10-21 08:12:00,
2013-10-21 02:21:00,37.0,34.0,29.86,WNW,296,0.0,0.0,89,0.00,,,0.00,,2013-10-21 08:21:00,
2013-10-21 02:42:00,37.0,34.0,29.86,WNW,296,0.0,0.0,89,0.00,,,0.00,,2013-10-21 08:42:00,
2013-10-21 02:52:00,37.0,34.0,29.86,WNW,296,0.0,0.0,90,0.00,,,0.00,,2013-10-21 08:52:00,
2013-10-21 03:11:00,37.0,34.0,29.86,WNW,296,0.0,0.0,90,0.00,,,0.00,,2013-10-21 09:11:00,
2013-10-21 03:22:00,37.0,34.0,29.85,WNW,296,0.0,0.0,90,0.00,,,0.00,,2013-10-21 09:22:00,
2013-10-21 03:43:00,37.0,34.0,29.84,WNW,296,0.0,0.0,90,0.00,,,0.00,,2013-10-21 09:43:00,
2013-10-21 03:53:00,37.0,35.0,29.84,WNW,296,0.0,0.0,91,0.00,,,0.00,,2013-10-21 09:53:00,
2013-10-21 04:13:00,37.0,35.0,29.83,WNW,296,0.0,0.0,91,0.01,,,0.01,,2013-10-21 10:13:00,
2013-10-21 04:23:00,38.0,36.0,29.83,WNW,296,0.0,0.0,91,0.01,,,0.01,,2013-10-21 10:23:00,
2013-10-21 04:43:00,38.0,36.0,29.82,WNW,296,0.0,0.0,91,0.01,,,0.01,,2013-10-21 10:43:00,
2013-10-21 04:52:00,38.0,36.0,29.82,WNW,296,0.0,0.0,92,0.01,,,0.01,,2013-10-21 10:52:00,
2013-10-21 05:12:00,38.0,36.0,29.82,WNW,296,0.0,0.0,92,0.00,,,0.01,,2013-10-21 11:12:00,
2013-10-21 05:22:00,38.0,36.0,29.82,WNW,296,0.0,0.0,92,0.00,,,0.01,,2013-10-21 11:22:00,
2013-10-21 05:42:00,38.0,36.0,29.80,WNW,296,0.0,0.0,92,0.00,,,0.01,,2013-10-21 11:42:00,
2013-10-21 05:52:00,38.0,36.0,29.80,WNW,296,0.0,0.0,92,0.00,,,0.01,,2013-10-21 11:52:00,
2013-10-21 06:12:00,38.0,36.0,29.80,WNW,291,2.0,5.0,92,0.00,,,0.01,,2013-10-21 12:12:00,
2013-10-21 06:22:00,38.0,36.0,29.79,WNW,290,0.0,5.0,93,0.00,,,0.01,,2013-10-21 12:22:00,
2013-10-21 06:42:00,38.0,36.0,29.79,WNW,290,0.0,0.0,93,0.00,,,0.01,,2013-10-21 12:42:00,
2013-10-21 06:52:00,38.0,36.0,29.79,WNW,290,0.0,0.0,93,0.00,,,0.01,,2013-10-21 12:52:00,
2013-10-21 07:11:00,38.0,36.0,29.78,WNW,290,0.0,0.0,93,0.00,,,0.01,,2013-10-21 13:11:00,
2013-10-21 07:22:00,38.0,36.0,29.78,WNW,290,0.0,0.0,93,0.00,,,0.01,,2013-10-21 13:22:00,
2013-10-21 07:42:00,38.0,36.0,29.78,WNW,290,0.0,0.0,93,0.00,,,0.01,,2013-10-21 13:42:00,
2013-10-21 07:52:00,38.0,36.0,29.78,WNW,290,0.0,0.0,93,0.00,,,0.01,,2013-10-21 13:52:00,
2013-10-21 08:11:00,38.0,36.0,29.78,WNW,290,0.0,0.0,93,0.00,,,0.01,,2013-10-21 14:11:00,
2013-10-21 08:22:00,38.0,36.0,29.79,WNW,290,0.0,0.0,93,0.00,,,0.01,,2013-10-21 14:22:00,
2013-10-21 08:42:00,38.0,36.0,29.80,WNW,290,0.0,0.0,93,0.00,,,0.01,,2013-10-21 14:42:00,
2013-10-21 08:52:00,38.0,36.0,29.80,WNW,290,0.0,0.0,94,0.00,,,0.01,,2013-10-21 14:52:00,
2013-10-21 09:12:00,39.0,37.0,29.80,WNW,290,0.0,1.0,94,0.00,,,0.01,,2013-10-21 15:12:00,
2013-10-21 09:21:00,41.0,39.0,29.80,WNW,290,1.0,5.0,94,0.00,,,0.01,,2013-10-21 15:21:00,
2013-10-21 09:43:00,41.0,39.0,29.81,WNW,290,2.0,4.0,92,0.00,,,0.01,,2013-10-21 15:43:00,
2013-10-21 09:53:00,42.0,40.0,29.81,WNW,290,0.0,0.0,91,0.00,,,0.01,,2013-10-21 15:53:00,
2013-10-21 10:13:00,43.0,40.0,29.81,WNW,290,0.0,4.0,90,0.00,,,0.01,,2013-10-21 16:13:00,
2013-10-21 10:23:00,44.0,41.0,29.80,WNW,290,0.0,4.0,89,0.00,,,0.01,,2013-10-21 16:23:00,
2013-10-21 10:43:00,45.0,41.0,29.81,WNW,290,2.0,6.0,87,0.00,,,0.01,,2013-10-21 16:43:00,
2013-10-21 10:53:00,46.0,41.0,29.81,WNW,302,7.0,11.0,83,0.00,,,0.01,,2013-10-21 16:53:00,
2013-10-21 11:12:00,47.0,41.0,29.80,WNW,301,9.0,14.0,79,0.00,,,0.01,,2013-10-21 17:12:00,
2013-10-21 11:22:00,48.0,42.0,29.81,NW,309,6.0,12.0,79,0.00,,,0.01,,2013-10-21 17:22:00,
2013-10-21 11:43:00,49.0,42.0,29.80,WNW,298,9.0,15.0,77,0.00,,,0.01,,2013-10-21 17:43:00,
2013-10-21 11:53:00,49.0,42.0,29.80,WNW,299,9.0,12.0,76,0.00,,,0.01,,2013-10-21 17:53:00,
2013-10-21 12:12:00,49.0,41.0,29.80,WNW,295,8.0,12.0,75,0.00,,,0.01,,2013-10-21 18:12:00,
2013-10-21 12:22:00,49.0,41.0,29.79,WNW,298,4.0,10.0,75,0.00,,,0.01,,2013-10-21 18:22:00,
2013-10-21 12:42:00,50.0,42.0,29.79,WNW,290,6.0,10.0,74,0.00,,,0.01,,2013-10-21 18:42:00,
2013-10-21 12:52:00,50.0,42.0,29.78,WNW,290,8.0,12.0,75,0.00,,,0.01,,2013-10-21 18:52:00,
2013-10-21 13:11:00,50.0,43.0,29.77,WNW,302,6.0,11.0,76,0.00,,,0.01,,2013-10-21 19:11:00,
2013-10-21 13:22:00,50.0,43.0,29.78,NW,305,8.0,12.0,76,0.01,,,0.02,,2013-10-21 19:22:00,
2013-10-21 13:42:00,49.0,43.0,29.77,WNW,294,6.0,11.0,81,0.02,,,0.03,,2013-10-21 19:42:00,
2013-10-21 13:52:00,49.0,44.0,29.77,WNW,282,9.0,13.0,83,0.02,,,0.03,,2013-10-21 19:52:00,
2013-10-21 14:11:00,48.0,43.0,29.77,WNW,282,8.0,13.0,84,0.03,,,0.04,,2013-10-21 20:11:00,
2013-10-21 14:22:00,48.0,43.0,29.76,West,271,6.0,14.0,84,0.03,,,0.05,,2013-10-21 20:22:00,
2013-10-21 14:43:00,48.0,43.0,29.75,West,269,10.0,14.0,84,0.02,,,0.05,,2013-10-21 20:43:00,
2013-10-21 14:52:00,49.0,44.0,29.75,West,267,11.0,18.0,84,0.01,,,0.05,,2013-10-21 20:52:00,
2013-10-21 15:12:00,49.0,45.0,29.75,WSW,257,11.0,16.0,85,0.01,,,0.05,,2013-10-21 21:12:00,
2013-10-21 15:22:00,49.0,45.0,29.75,West,265,10.0,16.0,86,0.00,,,0.05,,2013-10-21 21:22:00,
2013-10-21 15:54:00,50.0,45.0,29.74,West,269,12.0,16.0,84,0.00,,,0.05,,2013-10-21 21:54:00,
2013-10-21 16:13:00,51.0,46.0,29.74,West,263,9.0,14.0,83,0.00,,,0.05,,2013-10-21 22:13:00,
2013-10-21 16:24:00,51.0,46.0,29.74,West,279,6.0,12.0,82,0.00,,,0.05,,2013-10-21 22:24:00,
2013-10-21 16:44:00,51.0,45.0,29.74,WNW,286,11.0,17.0,79,0.00,,,0.05,,2013-10-21 22:44:00,
2013-10-21 16:53:00,52.0,46.0,29.75,WNW,297,10.0,17.0,79,0.00,,,0.05,,2013-10-21 22:53:00,
2013-10-21 17:13:00,52.0,45.0,29.74,WNW,290,11.0,21.0,76,0.00,,,0.05,,2013-10-21 23:13:00,
2013-10-21 17:22:00,53.0,45.0,29.74,WNW,302,11.0,20.0,75,0.00,,,0.05,,2013-10-21 23:22:00,
2013-10-21 17:42:00,53.0,45.0,29.75,WNW,296,11.0,18.0,74,0.00,,,0.05,,2013-10-21 23:42:00,
2013-10-21 17:53:00,53.0,45.0,29.75,WNW,297,10.0,17.0,74,0.00,,,0.05,,2013-10-21 23:53:00,
2013-10-21 18:12:00,52.0,44.0,29.76,NW,313,8.0,13.0,75,0.00,,,0.05,,2013-10-22 00:12:00,
2013-10-21 18:22:00,52.0,44.0,29.75,NW,311,7.0,13.0,75,0.00,,,0.05,,2013-10-22 00:22:00,
2013-10-21 18:42:00,52.0,45.0,29.76,NW,318,5.0,10.0,76,0.00,,,0.05,,2013-10-22 00:42:00,
2013-10-21 18:53:00,51.0,44.0,29.77,NW,322,5.0,9.0,76,0.00,,,0.05,,2013-10-22 00:53:00,
2013-10-21 19:12:00,51.0,43.0,29.78,NW,325,8.0,14.0,75,0.00,,,0.05,,2013-10-22 01:12:00,
2013-10-21 19:22:00,51.0,43.0,29.78,NW,325,9.0,15.0,73,0.00,,,0.05,,2013-10-22 01:22:00,
2013-10-21 19:42:00,51.0,42.0,29.79,NNW,327,7.0,13.0,72,0.00,,,0.05,,2013-10-22 01:42:00,
2013-10-21 19:52:00,50.0,41.0,29.80,NW,322,8.0,11.0,71,0.00,,,0.05,,2013-10-22 01:52:00,
2013-10-21 20:11:00,50.0,41.0,29.80,NNW,328,6.0,12.0,72,0.00,,,0.05,,2013-10-22 02:11:00,
2013-10-21 20:22:00,49.0,40.0,29.80,NNW,331,4.0,9.0,72,0.00,,,0.05,,2013-10-22 02:22:00,
2013-10-21 20:42:00,49.0,40.0,29.80,NNW,342,5.0,12.0,71,0.00,,,0.05,,2013-10-22 02:42:00,
2013-10-21 20:52:00,49.0,40.0,29.80,NNW,339,2.0,8.0,70,0.00,,,0.05,,2013-10-22 02:52:00,
2013-10-21 21:12:00,49.0,40.0,29.80,NNW,339,0.0,0.0,70,0.00,,,0.05,,2013-10-22 03:12:00,
2013-10-21 21:22:00,49.0,40.0,29.80,NNW,339,0.0,4.0,71,0.00,,,0.05,,2013-10-22 03:22:00,
2013-10-21 21:45:00,48.0,39.0,29.80,NNW,339,0.0,0.0,72,0.00,,,0.05,,2013-10-22 03:45:00,
2013-10-21 21:55:00,48.0,40.0,29.80,NNW,339,0.0,0.0,74,0.00,,,0.05,,2013-10-22 03:55:00,
2013-10-21 22:13:00,47.0,39.0,29.81,NNW,339,0.0,0.0,75,0.00,,,0.05,,2013-10-22 04:13:00,
2013-10-21 22:24:00,47.0,40.0,29.80,NNW,339,0.0,0.0,77,0.00,,,0.05,,2013-10-22 04:24:00,
2013-10-21 22:43:00,46.0,40.0,29.81,NNW,339,0.0,0.0,79,0.00,,,0.05,,2013-10-22 04:43:00,
2013-10-21 22:55:00,46.0,40.0,29.80,NNW,339,0.0,3.0,80,0.00,,,0.05,,2013-10-22 04:55:00,
2013-10-21 23:13:00,47.0,41.0,29.80,NW,321,14.0,22.0,80,0.00,,,0.05,,2013-10-22 05:13:00,
2013-10-21 23:22:00,48.0,43.0,29.79,WNW,290,14.0,24.0,82,0.01,,,0.06,,2013-10-22 05:22:00,
2013-10-21 23:43:00,48.0,42.0,29.80,WNW,298,15.0,26.0,81,0.01,,,0.06,,2013-10-22 05:43:00,
2013-10-21 23:52:00,47.0,42.0,29.81,NW,311,12.0,20.0,82,0.01,,,0.06,,2013-10-22 05:52:00,